• Join FlightAware (Why Join?)
  • Login
  • US Flag 
04:53PM EDT


 

Airport Tracker/Info


-or-


 

Live Flight TrackerFlight Track Log ✈ UPS2974 ✈ 13-May-2013 ✈ KSDF - KPDX

Flight Track Log - Related Links

Times and Time Zones

All times are in EDT time to prevent confusion due to time zone crossing. See the UPS2974 flight status page for this flight to view local times or setup timezone preferences in your user account.

Time Position Orientation Groundspeed Altitude Reporting Facility
EDT Latitude Longitude Course Direction KTS MPH feet Rate Location/Type
04:08PM 38.1760 -85.7450 159° South 166 191 500  Level FlightAware
04:09PM 38.1980 -85.7530 344° North 178 205 1,800 2,160 Climbing FlightAware
04:09PM 38.2170 -85.7650 334° Northwest 204 235 2,500 2,040 Climbing FlightAware
04:10PM 38.2440 -85.7850 330° Northwest 229 264 3,700 2,160 Climbing FlightAware
04:10PM 38.2710 -85.8090 325° Northwest 252 290 4,700 2,220 Climbing FlightAware
04:10PM 38.2760 -85.8220 296° West 252 290 5,200 2,700 Climbing FlightAware
04:10PM 38.2760 -85.8340 270° West 254 292 5,600 2,760 Climbing FlightAware
04:11PM 38.2700 -85.8890 262° West 267 307 7,300 2,880 Climbing FlightAware
04:11PM 38.2570 -85.9080 229° Southwest 273 314 8,000 2,700 Climbing FlightAware
04:12PM 38.2340 -85.9350 223° Southwest 280 322 9,100 2,100 Climbing FlightAware
04:12PM 38.2200 -85.9490 218° Southwest 289 333 9,400 1,560 Climbing FlightAware
04:13PM 38.1700 -86.0040 221° Southwest 334 384 10,700 1,620 Climbing FlightAware
04:13PM 38.1210 -86.0590 221° Southwest 379 436 11,700 2,220 Climbing FlightAware
04:14PM 38.0750 -86.1440 236° Southwest 378 435 13,900 3,060 Climbing FlightAware
04:15PM 38.0600 -86.2180 256° West 384 442 15,800 1,380 Climbing FlightAware
04:15PM 38.0420 -86.3030 255° West 384 442 15,800 2,880 Level FlightAware
04:16PM 38.0410 -86.4130 269° West 404 465 19,900 4,140 Climbing FlightAware
04:17PM 38.0330 -86.5180 265° West 420 483 21,700 2,460 Climbing FlightAware
04:18PM 38.0240 -86.6340 264° West 430 495 23,600 2,400 Climbing FlightAware
04:18PM 38.0160 -86.7340 264° West 438 504 25,100 2,100 Climbing FlightAware
04:19PM 38.0090 -86.8320 265° West 442 509 26,400 1,860 Climbing FlightAware
04:20PM 38.0190 -86.9390 277° West 440 506 27,600 2,040 Climbing FlightAware
04:20PM 38.0440 -87.0460 287° West 433 498 29,300 2,280 Climbing FlightAware
04:21PM 38.0680 -87.1440 287° West 429 494 30,900 2,040 Climbing FlightAware
04:22PM 38.0950 -87.2520 288° West 431 496 32,200 1,320 Climbing FlightAware
04:22PM 38.1190 -87.3480 288° West 422 486 32,800 540 Climbing FlightAware
04:23PM 38.1460 -87.4530 288° West 416 479 33,000 120 Climbing FlightAware
04:24PM 38.1690 -87.5450 288° West 415 478 33,000 180 Level FlightAware
04:25PM 38.1960 -87.6500 288° West 420 483 33,300 900 Climbing FlightAware
04:25PM 38.2200 -87.7470 288° West 422 486 34,300 1,380 Climbing FlightAware
04:26PM 38.2430 -87.8420 287° West 422 486 35,200 1,200 Climbing FlightAware
04:27PM 38.2680 -87.9440 287° West 423 487 36,000 540 Climbing FlightAware
04:27PM 38.2920 -88.0400 288° West 425 489 36,000  Level FlightAware
04:28PM 38.3160 -88.1370 288° West 425 489 36,000  Level FlightAware
04:29PM 38.3420 -88.2430 287° West 427 491 36,000  Level FlightAware
04:29PM 38.3660 -88.3410 287° West 429 494 36,000  Level FlightAware
04:30PM 38.3890 -88.4370 287° West 429 494 36,000  Level FlightAware
04:31PM 38.4150 -88.5450 287° West 430 495 36,000  Level FlightAware
04:32PM 38.4420 -88.6560 287° West 432 497 36,000  Level FlightAware
04:32PM 38.4650 -88.7540 287° West 433 498 36,000  Level FlightAware
04:33PM 38.4880 -88.8510 287° West 435 501 36,000  Level FlightAware
04:34PM 38.5140 -88.9600 287° West 436 502 36,000  Level FlightAware
04:34PM 38.5370 -89.0570 287° West 437 503 36,000  Level FlightAware
04:35PM 38.5600 -89.1570 286° West 438 504 36,000  Level FlightAware
04:36PM 38.5860 -89.2670 287° West 440 506 36,000  Level FlightAware
04:36PM 38.6090 -89.3670 286° West 440 506 36,000  Level FlightAware
04:37PM 38.6300 -89.4610 286° West 440 506 36,000  Level FlightAware
04:38PM 38.6570 -89.5750 287° West 440 506 36,000  Level FlightAware
04:38PM 38.6760 -89.6580 286° West 440 506 36,000  Level FlightAware
04:39PM 38.6990 -89.7650 285° West 440 506 36,000  Level FlightAware
04:40PM 38.7250 -89.8760 287° West 441 507 36,000  Level FlightAware
04:41PM 38.7490 -89.9820 286° West 441 507 36,000  Level FlightAware
04:41PM 38.7680 -90.0680 286° West 441 507 36,000  Level FlightAware
04:42PM 38.7990 -90.2030 286° West 444 511 36,000  Level FlightAware
04:43PM 38.8250 -90.3210 286° West 446 513 36,000  Level FlightAware
04:43PM 38.8480 -90.4240 286° West 446 513 36,000  Level FlightAware
04:44PM 38.8630 -90.5430 279° West 459 528 36,000  Level FlightAware
04:45PM 38.8700 -90.6480 275° West 460 529 36,000  Level FlightAware
04:45PM 38.8740 -90.7490 273° West 460 529 36,000  Level FlightAware
04:46PM 38.8800 -90.8680 274° West 459 528 36,000  Level FlightAware
04:47PM 38.8840 -90.9600 273° West 459 528 36,000  Level FlightAware
04:48PM 38.8930 -91.1190 274° West 458 527 36,000  Level FlightAware
04:49PM 38.8980 -91.2350 273° West 458 527 36,000  Level FlightAware
04:49PM 38.9040 -91.3340 274° West 461 531 36,000  Level FlightAware
04:50PM 38.9090 -91.4480 273° West 461 531 36,000  Level FlightAware
04:51PM 38.9140 -91.5650 273° West 461 531 36,000  Level FlightAware
04:51PM 38.9220 -91.7250 274° West 463 533 36,000  Level FlightAware
04:52PM 38.9270 -91.8310 274° West 464 534 36,000  Level FlightAware
04:53PM 38.9310 -91.9420 273° West 464 534 36,000  Level FlightAware
04:53PM 38.9370 -92.0700 273° West 465 535 36,000  Level FlightAware
04:54PM 38.9410 -92.2110 272° West 466 536 36,000  Level FlightAware
04:55PM 38.9480 -92.3480 274° West 466 536 36,000  Level FlightAware
04:56PM 38.9520 -92.4590 273° West 467 537 36,000  Level FlightAware
04:56PM 38.9560 -92.5690 273° West 467 537 36,000  Level FlightAware
04:57PM 38.9610 -92.6900 273° West 468 539 36,000  Level FlightAware
04:58PM 38.9650 -92.8030 273° West 469 540 36,000  Level FlightAware
04:59PM 38.9690 -92.9270 272° West 470 541 36,000  Level FlightAware
04:59PM 38.9730 -93.0390 273° West 470 541 36,000  Level FlightAware
05:00PM 38.9760 -93.1510 272° West 470 541 36,000  Level FlightAware
05:01PM 38.9800 -93.2770 272° West 471 542 36,000  Level FlightAware
05:01PM 38.9840 -93.3910 273° West 471 542 36,000  Level FlightAware
05:02PM 38.9870 -93.5030 272° West 471 542 36,000  Level FlightAware
05:03PM 38.9900 -93.6250 272° West 471 542 36,000  Level FlightAware
05:03PM 38.9930 -93.7360 272° West 470 541 36,000  Level FlightAware
05:04PM 38.9970 -93.8660 272° West 469 540 36,000  Level FlightAware
05:05PM 39.0000 -93.9760 272° West 467 537 36,000  Level FlightAware
05:06PM 39.0090 -94.0840 276° West 463 533 36,000  Level FlightAware
05:06PM 39.0220 -94.2040 278° West 463 533 36,000  Level FlightAware
05:07PM 39.0340 -94.3150 278° West 463 533 36,000  Level FlightAware
05:08PM 39.0470 -94.4380 278° West 464 534 36,000  Level FlightAware
05:08PM 39.0590 -94.5460 278° West 463 533 36,000  Level FlightAware
05:09PM 39.0710 -94.6670 277° West 461 531 36,000  Level FlightAware
05:10PM 39.0820 -94.7740 278° West 458 527 36,000  Level FlightAware
05:10PM 39.0930 -94.8820 278° West 457 526 36,000  Level FlightAware
05:11PM 39.1060 -95.0050 278° West 457 526 36,000  Level FlightAware
05:12PM 39.1170 -95.1150 277° West 458 527 36,000  Level FlightAware
05:13PM 39.1280 -95.2280 277° West 458 527 36,000  Level FlightAware
05:13PM 39.1380 -95.3330 277° West 459 528 36,000  Level FlightAware
05:14PM 39.1500 -95.4500 278° West 460 529 36,000  Level FlightAware
05:15PM 39.1600 -95.5520 277° West 462 532 36,000  Level FlightAware
05:15PM 39.1720 -95.6820 277° West 465 535 36,000  Level FlightAware
05:16PM 39.1820 -95.7910 277° West 466 536 36,000  Level FlightAware
05:17PM 39.1940 -95.9180 277° West 468 539 36,000  Level FlightAware
05:17PM 39.2050 -96.0310 277° West 469 540 36,000  Level FlightAware
05:18PM 39.2080 -96.0700 276° West 469 540 36,000  Level FlightAware
05:19PM 39.2180 -96.1700 277° West 469 540 36,000  Level FlightAware
05:20PM 39.2360 -96.3740 277° West 469 540 36,000  Level FlightAware
05:20PM 39.2470 -96.5000 276° West 469 540 36,000  Level FlightAware
05:21PM 39.2570 -96.6110 277° West 467 537 36,000  Level FlightAware
05:22PM 39.2670 -96.7350 276° West 467 537 36,000  Level FlightAware
05:22PM 39.2770 -96.8440 277° West 467 537 36,000  Level FlightAware
05:23PM 39.2860 -96.9540 276° West 468 539 36,000  Level FlightAware
05:24PM 39.2950 -97.0590 276° West 468 539 36,000  Level FlightAware
05:24PM 39.3040 -97.1750 276° West 468 539 36,000  Level FlightAware
05:25PM 39.3150 -97.3160 276° West 468 539 36,000  Level FlightAware
05:26PM 39.3220 -97.4140 275° West 468 539 36,000  Level FlightAware
05:27PM 39.3330 -97.5390 277° West 469 540 36,000  Level FlightAware
05:27PM 39.3430 -97.6610 276° West 470 541 36,000  Level FlightAware
05:28PM 39.3520 -97.7770 276° West 472 543 36,000  Level FlightAware
05:29PM 39.3600 -97.8900 275° West 472 543 36,000  Level FlightAware
05:29PM 39.3680 -98.0030 275° West 472 543 36,000  Level FlightAware
05:30PM 39.3770 -98.1160 276° West 474 545 36,000  Level FlightAware
05:31PM 39.3890 -98.2780 276° West 475 547 36,000  Level FlightAware
05:32PM 39.3970 -98.4020 275° West 474 545 36,000  Level FlightAware
05:32PM 39.4050 -98.5050 276° West 474 545 36,000  Level FlightAware
05:33PM 39.4110 -98.6010 275° West 474 545 36,000  Level FlightAware
05:34PM 39.4180 -98.6970 275° West 474 545 36,000  Level FlightAware
05:34PM 39.4240 -98.7930 275° West 474 545 36,000  Level FlightAware
05:35PM 39.4320 -98.9130 275° West 474 545 36,000  Level FlightAware
05:36PM 39.4390 -99.0090 275° West 474 545 36,000  Level FlightAware
05:37PM 39.4450 -99.1060 275° West 474 545 36,000  Level FlightAware
05:37PM 39.4520 -99.2020 275° West 474 545 36,000  Level FlightAware
05:38PM 39.4600 -99.3220 275° West 474 545 36,000  Level FlightAware
05:39PM 39.4660 -99.4180 275° West 474 545 36,000  Level FlightAware
05:39PM 39.4730 -99.5150 275° West 474 545 36,000  Level FlightAware
05:40PM 39.4790 -99.6110 275° West 474 545 36,000  Level FlightAware
05:41PM 39.4860 -99.7070 275° West 474 545 36,000  Level FlightAware
05:41PM 39.4920 -99.8030 275° West 474 545 36,000  Level FlightAware
05:42PM 39.5108 -100.0619 275° West 473 544 36,000  Level Denver Center
05:48PM 39.7085 -101.0970 275° West 467 537 36,000  Level FlightAware ADS-B
05:48PM 39.7239 -101.1810 283° West 468 539 36,000  Level FlightAware ADS-B
05:49PM 39.7398 -101.2680 283° West 468 539 36,000  Level FlightAware ADS-B
05:49PM 39.7549 -101.3500 283° West 469 540 36,000  Level FlightAware ADS-B
05:50PM 39.7699 -101.4330 283° West 470 541 36,000  Level FlightAware ADS-B
05:50PM 39.7853 -101.5180 283° West 470 541 36,000  Level FlightAware ADS-B
05:51PM 39.8001 -101.6000 283° West 470 541 36,000  Level FlightAware ADS-B
05:51PM 39.8158 -101.6880 283° West 472 543 36,000  Level FlightAware ADS-B
05:52PM 39.8310 -101.7730 283° West 472 543 36,000  Level FlightAware ADS-B
05:52PM 39.8458 -101.8560 283° West 472 543 36,000  Level FlightAware ADS-B
05:53PM 39.8613 -101.9430 283° West 472 543 36,000  Level FlightAware ADS-B
05:53PM 39.8759 -102.0260 283° West 473 544 36,000  Level FlightAware ADS-B
05:54PM 39.8921 -102.1190 283° West 473 544 36,000  Level FlightAware ADS-B
05:55PM 39.9074 -102.2060 283° West 473 544 36,000  Level FlightAware ADS-B
05:55PM 39.9219 -102.2900 283° West 474 545 36,000  Level FlightAware ADS-B
05:56PM 39.9369 -102.3760 283° West 475 547 36,000  Level FlightAware ADS-B
05:56PM 39.9514 -102.4610 283° West 475 547 36,000  Level FlightAware ADS-B
05:57PM 39.9660 -102.5460 283° West 475 547 36,000  Level FlightAware ADS-B
05:57PM 39.9811 -102.6340 283° West 476 548 36,000  Level FlightAware ADS-B
05:58PM 39.9954 -102.7190 282° West 477 549 36,000  Level FlightAware ADS-B
05:58PM 40.0098 -102.8050 282° West 478 550 36,000  Level FlightAware ADS-B
05:59PM 40.0241 -102.8900 282° West 479 551 36,000  Level FlightAware ADS-B
05:59PM 40.0387 -102.9770 282° West 480 552 36,000  Level FlightAware ADS-B
06:00PM 40.0530 -103.0630 282° West 480 552 36,000  Level FlightAware ADS-B
06:00PM 40.0671 -103.1480 282° West 480 552 36,000  Level FlightAware ADS-B
06:01PM 40.0811 -103.2330 282° West 479 551 36,000  Level FlightAware ADS-B
06:01PM 40.0950 -103.3180 282° West 478 550 36,000  Level FlightAware ADS-B
06:02PM 40.1090 -103.4040 282° West 479 551 36,000  Level FlightAware ADS-B
06:02PM 40.1235 -103.4930 282° West 477 549 36,000  Level FlightAware ADS-B
06:03PM 40.1375 -103.5800 282° West 477 549 36,000  Level FlightAware ADS-B
06:03PM 40.1512 -103.6650 282° West 475 547 36,000  Level FlightAware ADS-B
06:04PM 40.1649 -103.7500 282° West 475 547 36,000  Level FlightAware ADS-B
06:04PM 40.1785 -103.8360 282° West 475 547 36,000  Level FlightAware ADS-B
06:05PM 40.1922 -103.9220 282° West 476 548 36,000  Level FlightAware ADS-B
06:05PM 40.2053 -104.0060 282° West 474 545 36,000  Level FlightAware ADS-B
06:06PM 40.2187 -104.0910 282° West 476 548 36,000  Level FlightAware ADS-B
06:06PM 40.2318 -104.1750 282° West 476 548 36,000  Level FlightAware ADS-B
06:07PM 40.2451 -104.2610 281° West 476 548 36,000  Level FlightAware ADS-B
06:07PM 40.2585 -104.3470 282° West 476 548 36,000  Level FlightAware ADS-B
06:08PM 40.2715 -104.4320 281° West 476 548 36,000  Level FlightAware ADS-B
06:08PM 40.2845 -104.5180 281° West 476 548 36,000  Level FlightAware ADS-B
06:09PM 40.2982 -104.6080 281° West 478 550 36,000  Level FlightAware ADS-B
06:09PM 40.3114 -104.6950 281° West 479 551 36,000  Level FlightAware ADS-B
06:10PM 40.3242 -104.7800 281° West 478 550 36,000  Level FlightAware ADS-B
06:10PM 40.3370 -104.8660 281° West 478 550 36,000  Level FlightAware ADS-B
06:11PM 40.3497 -104.9520 281° West 478 550 36,000  Level FlightAware ADS-B
06:11PM 40.3625 -105.0380 281° West 477 549 36,000  Level FlightAware ADS-B
06:12PM 40.3751 -105.1240 281° West 476 548 36,000  Level FlightAware ADS-B
06:12PM 40.3876 -105.2090 281° West 476 548 36,000  Level FlightAware ADS-B
06:13PM 40.4003 -105.2960 281° West 475 547 36,000  Level FlightAware ADS-B
06:13PM 40.4125 -105.3810 281° West 475 547 36,000  Level FlightAware ADS-B
06:14PM 40.4360 -105.5470 281° West 474 545 36,000  Level FlightAware
06:15PM 40.4408 -105.5780 282° West 474 545 36,000  Level FlightAware ADS-B
06:15PM 40.4540 -105.6730 280° West 473 544 36,000  Level FlightAware
06:16PM 40.4700 -105.7830 281° West 472 543 36,000  Level FlightAware
06:16PM 40.4860 -105.8970 280° West 471 542 36,000  Level FlightAware
06:17PM 40.5070 -106.0230 282° West 472 543 36,000  Level FlightAware
06:18PM 40.5310 -106.1240 287° West 472 543 36,000  Level FlightAware
06:19PM 40.5510 -106.2180 286° West 472 543 36,000  Level FlightAware
06:20PM 40.6060 -106.3940 292° West 470 541 36,000  Level FlightAware
06:20PM 40.6300 -106.4860 289° West 470 541 36,000  Level FlightAware
06:21PM 40.6800 -106.6730 289° West 468 539 36,000  Level FlightAware
06:22PM 40.7020 -106.7550 290° West 468 539 36,000  Level FlightAware
06:23PM 40.7320 -106.8700 289° West 468 539 36,000  Level FlightAware
06:23PM 40.7560 -106.9620 289° West 468 539 36,000  Level FlightAware
06:24PM 40.7800 -107.0540 289° West 468 539 36,000  Level FlightAware
06:25PM 40.8040 -107.1460 289° West 468 539 36,000  Level FlightAware
06:25PM 40.8280 -107.2380 289° West 468 539 36,000  Level FlightAware
06:26PM 40.8510 -107.3300 288° West 468 539 36,000  Level FlightAware
06:27PM 40.8810 -107.4450 289° West 468 539 36,000  Level FlightAware
06:27PM 40.9050 -107.5370 289° West 468 539 36,000  Level FlightAware
06:28PM 40.9290 -107.6290 289° West 468 539 36,000  Level FlightAware
06:29PM 40.9530 -107.7210 289° West 468 539 36,000  Level FlightAware
06:29PM 40.9770 -107.8130 289° West 468 539 36,000  Level FlightAware
06:30PM 41.0010 -107.9060 289° West 468 539 36,000  Level FlightAware
06:31PM 41.0310 -108.0210 289° West 468 539 36,000  Level FlightAware
06:32PM 41.1258 -108.4219 289° West 467 537 36,000  Level Salt Lake Center
06:33PM 41.1642 -108.5778 288° West 464 534 36,000  Level Salt Lake Center
06:34PM 41.2083 -108.7614 288° West 465 535 36,000  Level Salt Lake Center
06:35PM 41.2456 -108.9186 288° West 465 535 36,000  Level Salt Lake Center
06:36PM 41.2822 -109.0778 287° West 466 536 36,000  Level Salt Lake Center
06:37PM 41.3281 -109.2694 288° West 475 547 36,000  Level Salt Lake Center
06:38PM 41.3664 -109.4306 288° West 472 543 36,000  Level Salt Lake Center
06:39PM 41.4039 -109.5894 288° West 469 540 36,000  Level Salt Lake Center
06:40PM 41.4467 -109.7733 287° West 465 535 36,000  Level Salt Lake Center
06:41PM 41.4836 -109.9311 287° West 466 536 36,000  Level Salt Lake Center
06:42PM 41.5397 -110.1086 293° West 464 534 36,000  Level Salt Lake Center
06:43PM 41.5967 -110.2561 297° West 465 535 36,000  Level Salt Lake Center
06:44PM 41.6533 -110.4033 297° West 466 536 36,000  Level Salt Lake Center
06:45PM 41.7181 -110.5747 297° West 463 533 36,000  Level Salt Lake Center
06:46PM 41.7736 -110.7206 297° West 460 529 36,000  Level Salt Lake Center
06:47PM 41.8364 -110.8922 296° West 457 526 36,000  Level Salt Lake Center
06:48PM 41.8928 -111.0397 297° West 457 526 36,000  Level Salt Lake Center
06:49PM 41.9483 -111.1917 296° West 457 526 36,000  Level Salt Lake Center
06:51PM 42.0050 -111.3431 297° West 457 526 36,000  Level Salt Lake Center
06:52PM 42.0594 -111.4950 296° West 455 524 36,000  Level Salt Lake Center
06:53PM 42.1150 -111.6458 296° West 453 521 36,000  Level Salt Lake Center
06:54PM 42.1803 -111.8258 296° West 448 516 36,000  Level Salt Lake Center
06:55PM 42.2347 -111.9767 296° West 450 518 36,000  Level Salt Lake Center
06:56PM 42.2889 -112.1275 296° West 448 516 36,000  Level Salt Lake Center
06:57PM 42.3425 -112.2778 296° West 447 514 36,000  Level Salt Lake Center
06:58PM 42.3953 -112.4272 296° West 443 510 36,000  Level Salt Lake Center
06:59PM 42.4489 -112.5789 296° West 446 513 36,000  Level Salt Lake Center
07:00PM 42.5017 -112.7294 295° West 446 513 36,000  Level Salt Lake Center
07:01PM 42.5658 -112.9106 296° West 445 512 36,000  Level Salt Lake Center
07:02PM 42.6172 -113.0628 295° West 444 511 36,000  Level Salt Lake Center
07:03PM 42.6694 -113.2117 296° West 440 506 36,000  Level Salt Lake Center
07:04PM 42.7217 -113.3533 297° West 446 513 36,000  Level Salt Lake Center
07:05PM 42.7867 -113.5192 298° West 446 513 36,000  Level Salt Lake Center
07:06PM 42.8425 -113.6619 298° West 445 512 36,000  Level Salt Lake Center
07:07PM 42.9072 -113.8275 298° West 442 509 36,000  Level Salt Lake Center
07:08PM 42.9569 -113.9597 297° West 449 517 36,000  Level Salt Lake Center
07:09PM 43.0122 -114.1072 297° West 438 504 36,000  Level Salt Lake Center
07:10PM 43.0842 -114.2831 299° West 444 511 36,000  Level Salt Lake Center
07:11PM 43.1369 -114.4236 297° West 433 498 36,000  Level Salt Lake Center
07:12PM 43.1919 -114.5653 298° West 437 503 36,000  Level Salt Lake Center
07:13PM 43.2544 -114.7314 297° West 438 504 36,000  Level Salt Lake Center
07:14PM 43.3083 -114.8744 297° West 441 507 36,000  Level Salt Lake Center
07:15PM 43.3706 -115.0397 297° West 435 501 36,000  Level Salt Lake Center
07:16PM 43.4222 -115.1806 297° West 431 496 36,000  Level Salt Lake Center
07:17PM 43.4744 -115.3219 297° West 431 496 36,000  Level Salt Lake Center
07:18PM 43.5361 -115.4872 297° West 433 498 36,000  Level Salt Lake Center
07:19PM 43.5878 -115.6281 297° West 429 494 36,000  Level Salt Lake Center
07:20PM 43.6394 -115.7714 297° West 434 499 36,000  Level Salt Lake Center
07:21PM 43.6989 -115.9353 297° West 427 491 36,000  Level Salt Lake Center
07:22PM 43.7500 -116.0775 296° West 430 495 36,000  Level Salt Lake Center
07:23PM 43.8094 -116.2422 297° West 426 490 36,000  Level Salt Lake Center
07:24PM 43.8600 -116.3853 296° West 430 495 36,000  Level Salt Lake Center
07:25PM 43.9103 -116.5267 296° West 428 493 36,000  Level Salt Lake Center
07:26PM 43.9692 -116.6939 296° West 431 496 36,000  Level Salt Lake Center
07:27PM 44.0183 -116.8361 296° West 426 490 36,000  Level Salt Lake Center
07:28PM 44.0769 -117.0028 296° West 425 489 36,000  Level Salt Lake Center
07:29PM 44.1258 -117.1442 296° West 421 484 36,000  Level Salt Lake Center
07:30PM 44.1747 -117.2831 296° West 418 481 36,000  Level Salt Lake Center
07:31PM 44.2306 -117.4461 296° West 416 479 36,000  Level Salt Lake Center
07:32PM 44.2789 -117.5850 296° West 415 478 36,000  Level Salt Lake Center
07:34PM 44.3342 -117.7472 296° West 414 476 36,000  Level Salt Lake Center
07:35PM 44.3800 -117.8878 295° West 415 478 36,000  Level Salt Lake Center
07:36PM 44.4278 -118.0275 296° West 415 478 36,000  Level Salt Lake Center
07:37PM 44.4828 -118.1933 295° West 419 482 36,000  Level Salt Lake Center
07:37PM 44.4961 -118.2300 297° West 419 482 36,000  Level Seattle Center
07:38PM 44.5442 -118.3786 294° West 420 483 36,000  Level Seattle Center
07:39PM 44.5839 -118.4950 296° West 416 479 36,000  Level Salt Lake Center
07:40PM 44.6317 -118.6417 295° West 414 476 36,000  Level Salt Lake Center
07:40PM 44.6414 -118.6708 295° West 416 479 36,000  Level Seattle Center
07:41PM 44.6886 -118.8156 295° West 411 473 36,000  Level Seattle Center
07:42PM 44.7344 -118.9600 294° West 406 467 36,000  Level Seattle Center
07:43PM 44.7825 -119.1036 295° West 408 470 36,000  Level Seattle Center
07:44PM 44.8278 -119.2472 294° West 404 465 36,000  Level Seattle Center
07:45PM 44.8725 -119.3889 294° West 400 460 36,000  Level Seattle Center
07:46PM 44.9264 -119.5589 294° West 397 457 36,000  Level Seattle Center
07:47PM 44.9711 -119.7017 294° West 401 461 36,000  Level Seattle Center
07:48PM 45.0158 -119.8422 294° West 400 460 36,000  Level Seattle Center
07:49PM 45.0572 -120.0000 290° West 402 463 36,000  Level Seattle Center
07:50PM 45.0942 -120.1339 291° West 412 474 36,000  Level Seattle Center
07:51PM 45.1350 -120.2836 291° West 412 474 36,000 -360 Level Seattle Center
07:52PM 45.1758 -120.4361 291° West 415 478 35,300 -2,040 Descending Seattle Center
07:53PM 45.2233 -120.6114 291° West 400 460 31,900 -3,120 Descending Seattle Center
07:54PM 45.2619 -120.7542 291° West 389 448 29,000 -3,000 Descending Seattle Center
07:55PM 45.3003 -120.8969 291° West 388 447 25,900 -2,820 Descending Seattle Center
07:56PM 45.3361 -121.0378 290° West 381 438 23,300 -2,580 Descending Seattle Center
07:57PM 45.3725 -121.1753 291° West 373 429 20,700 -2,760 Descending Seattle Center
07:58PM 45.4067 -121.3064 290° West 357 411 17,700 -2,940 Descending Seattle Center
07:59PM 45.4256 -121.3681 294° West 346 398 16,500 -2,760 Descending Seattle Center
07:59PM 45.4361 -121.4069 291° West 337 388 15,800 -2,160 Descending Seattle Center
07:59PM 45.4392 -121.4319 280° West 341 392 15,200 -2,220 Descending Seattle Center
08:00PM 45.4658 -121.5269 292° West 303 349 13,600 -1,980 Descending Seattle Center
08:00PM 45.4692 -121.5456 284° West 309 356 13,200 -1,320 Descending Seattle Center
08:01PM 45.4833 -121.6403 282° West 293 337 12,300 -1,140 Descending Seattle Center
08:01PM 45.4833 -121.6614 270° West 298 343 12,100 -1,020 Descending Seattle Center
08:02PM 45.4983 -121.7636 282° West 272 313 11,200 -900 Descending Seattle Center
08:02PM 45.4956 -121.7697 237° Southwest 281 323 11,200 -840 Level Seattle Center
08:03PM 45.4872 -121.8550 262° West 219 252 10,400 -1,140 Descending Seattle Center
08:03PM 45.4792 -121.8731 238° Southwest 227 261 10,100 -1,740 Descending Seattle Center
08:04PM 45.4544 -121.9458 244° Southwest 226 260 8,200 -1,740 Descending Seattle Center
08:05PM 45.4314 -122.0142 244° Southwest 229 264 7,100 -1,200 Descending Seattle Center
08:05PM 45.4294 -122.0275 258° West 227 261 7,000 -900 Descending Seattle Center
08:06PM 45.4069 -122.0858 241° Southwest 195 224 6,200 -1,140 Descending Seattle Center
08:06PM 45.4061 -122.0989 265° West 205 236 5,900 -900 Descending Seattle Center
08:07PM 45.4300 -122.1658 297° West 204 235 5,300 -720 Descending Seattle Center
08:07PM 45.4319 -122.1722 293° West 204 235 5,200 -840 Descending Seattle Center
08:08PM 45.4514 -122.2278 297° West 174 200 4,500 -900 Descending Seattle Center
08:08PM 45.4544 -122.2322 314° West 183 211 4,300 -1,020 Descending Seattle Center
08:09PM 45.4711 -122.2814 296° West 168 193 3,600 -840 Descending Seattle Center
08:09PM 45.4808 -122.3028 303° West 172 198 3,500 -120 Descending Seattle Center
08:10PM 45.4944 -122.3425 296° West 167 192 3,500 -240 Level Seattle Center
08:10PM 45.5031 -122.3611 303° West 169 194 3,300 -840 Descending Seattle Center
08:11PM 45.5194 -122.4003 301° West 170 196 2,700 -900 Descending Seattle Center
08:11PM 45.5253 -122.4183 295° West 166 191 2,400 -840 Descending Seattle Center
08:12PM 45.5428 -122.4617 300° West 164 189 1,800 -900 Descending Seattle Center
08:12PM 45.5475 -122.4736 299° West 164 189 1,500 -840 Descending Seattle Center
08:13PM 45.5606 -122.5067 299° West 133 153 1,000 -720 Descending Seattle Center
08:13PM 45.5669 -122.5228 300° West 156 180 800 -720 Descending Seattle Center
08:14PM 45.5789 -122.5547 298° West 128 147 300 -420 Descending Seattle Center
08:14PM 45.5822 -122.5606 309° West 148 170 400 360 Climbing Seattle Center